메인 페이지
METAR-TAF:

METAR-TAF

공항 :

오클랜드 국제공항

오클랜드, 뉴질랜드

위도: 37-01S, 경도: 174-48E, 고도: 7m

현재 날씨관측

예보는 44분 전, 04:30시(UTC)에 발표되었습니다.
10kt
온도 19°C
습도 68%
기압 1011 hPa
시정 10km 이상

METAR: NZAA 250430Z AUTO 01010KT 9999 FEW025/// 19/13 Q1011

시각: 17:14 (05:14 UTC)

예보

예보는 3 시간 8분 전, 02:06시(UTC)에 발표되었습니다.
예보 대상 시간: 25일 02시부터 26일 06시까지 (UTC)
북북동10kt
시정 10km 이상
고도 2500ft 상공 구름 보통
일시적
25일 15시부터 25일 19시까지 (UTC)
시정: 6000m
소나기
확률 30% :
일시적
25일 19시부터 26일 02시까지 (UTC)
시정: 4000m
고도 2000ft 상공 구름 조금, 적란운.
뇌우, 비
전환 중
25일 21시부터 25일 23시까지 (UTC)
서남서15kt
일시적
26일 04시부터 26일 06시까지 (UTC)
시정: 7000m
소나기,

TAF: NZAA 250206Z 2502/2606 02010KT 9999 SCT025 TEMPO 2515/2519 6000 SHRA PROB30 TEMPO 2519/2602 4000 TSRA FEW020CB BECMG 2521/2523 24015KT TEMPO 2604/2606 7000 SHRA

4,000개 이상의 공항 관측 자료 및 예보 (METAR 및 TAF 보고).

지도상에서 검색 가능한 기상관측소가 노란 점과 빨간 점으로 표시되어 있습니다.

기상관측소 명을 보려면 표시 위로 마우스를 이동하세요.

날씨 관측과 예보를 보려면 클릭하세요.

지도 변경 : 확대하려면 엑스 표시가 있는 녹색 버튼, 축소하려면 빼기 표시가 있는 녹색 버튼, 다음 페이지의 지도를 보려면 녹색 화살표를 클릭하세요.


METAR-TAF: